Time;durP1;ratioP1;P1;durP2;ratioP2;P2;SDS_P1;SDS_P2;PMS_P1;PMS_P2;Temp;Humidity;BMP_temperature;BMP_pressure;BME280_temperature;BME280_humidity;BME280_pressure;Samples;Min_cycle;Max_cycle;Signal;HPM_P1;HPM_P2
2022/07/20 00:00:05;;;;;;;;;;;;;;;;;;349992;28;928;-62
2022/07/20 00:00:15;;;;;;;;;;;;;;;;;;349961;28;971;-62
2022/07/20 00:00:26;;;;;;;;;;;;;;;;;;350088;28;770;-62
2022/07/20 00:00:42;;;;;;;;;;;;;;;;;;350068;28;991;-61
2022/07/20 00:00:53;;;;;;;;;;;;;;;;;;350067;28;808;-62
2022/07/20 00:01:03;;;;;;;;;;;;;;;;;;349978;28;955;-62
2022/07/20 00:01:13;;;;;;;;;;;;;;;;;;350037;28;928;-62
2022/07/20 00:01:23;;;;;;;;;;;;;;;;;;350038;28;928;-61
2022/07/20 00:01:34;;;;;;;;;;;;;;;;;;349997;28;936;-62
2022/07/20 00:01:44;;;;;;;;;;;;;;;;;;350031;28;944;-62
2022/07/20 00:01:54;;;;;;;;;;;;;;;;;;349996;28;956;-62
2022/07/20 00:02:04;;;;;;;;;;;;;;;;;;350010;28;952;-61
2022/07/20 00:02:15;;;;;;;;;;;;;;;;;;350058;28;845;-62
2022/07/20 00:02:25;;;;;;;;;;;;;;;;;;350083;28;833;-62
2022/07/20 00:02:36;;;;;;;;;;;;;;;;;;350039;28;967;-62
2022/07/20 00:02:46;;;;;;;;;;;;;;;;;;349961;28;988;-61
2022/07/20 00:03:01;;;;;;;;;;;;;;;;;;349534;28;1397;-62
2022/07/20 00:03:11;;;;;;;;;;;;;;;;;;351386;28;1007;-61
2022/07/20 00:03:22;;;;;;;;;;;;;;;;;;351459;28;781;-62
2022/07/20 00:03:32;;;;;;;;;;;;;;;;;;351422;28;904;-62
2022/07/20 00:03:45;;;;;;;;;;;;;;;;;;351402;28;984;-61
2022/07/20 00:03:56;;;;;;;;;;;;;;;;;;351389;28;991;-62
2022/07/20 00:04:06;;;;;;;;;;;;;;;;;;351359;28;933;-61
2022/07/20 00:04:16;;;;;;;;;;;;;;;;;;351444;28;869;-62
2022/07/20 00:04:26;;;;;;;;;;;;;;;;;;351434;28;917;-62
2022/07/20 00:04:37;;;;;;;;;;;;;;;;;;351365;28;972;-61
2022/07/20 00:04:50;;;;;;;;;;;;;;;;;;351367;28;831;-62
2022/07/20 00:05:01;;;;;;;;;;;;;;;;;;351251;28;971;-62
2022/07/20 00:05:11;;;;;;;;;;;;;;;;;;351234;28;916;-61
2022/07/20 00:05:21;;;;;;;;;;;;;;;;;;351254;28;845;-62
2022/07/20 00:05:31;;;;;;;;;;;;;;;;;;351255;28;920;-62
2022/07/20 00:05:42;;;;;;;;;;;;;;;;;;351405;28;936;-62
2022/07/20 00:05:58;;;;;;;;;;;;;;;;;;351484;28;988;-62
2022/07/20 00:06:08;;;;;;;;;;;;;;;;;;351383;28;961;-62
2022/07/20 00:06:19;;;;;;;;;;;;;;;;;;351464;28;821;-61
2022/07/20 00:06:29;;;;;;;;;;;;;;;;;;351450;28;924;-62
2022/07/20 00:06:39;;;;;;;;;;;;;;;;;;351425;28;996;-62
2022/07/20 00:06:49;;;;;;;;;;;;;;;;;;351449;28;849;-62
2022/07/20 00:07:00;;;;;;;;;;;;;;;;;;351458;28;860;-62
2022/07/20 00:07:10;;;;;;;;;;;;;;;;;;351365;28;912;-61
2022/07/20 00:07:20;;;;;;;;;;;;;;;;;;351457;28;836;-62
2022/07/20 00:07:30;;;;;;;;;;;;;;;;;;349842;28;1339;-62
2022/07/20 00:07:41;;;;;;;;;;;;;;;;;;350708;28;1736;-61
2022/07/20 00:07:51;;;;;;;;;;;;;;;;;;351421;28;846;-62
2022/07/20 00:08:01;;;;;;;;;;;;;;;;;;351351;28;1011;-62
2022/07/20 00:08:12;;;;;;;;;;;;;;;;;;351414;28;912;-62
2022/07/20 00:11:21;;;;;;;;;;;;;;;;;;351328;28;996;-61
2022/07/20 00:11:32;;;;;;;;;;;;;;;;;;351417;28;1003;-62
2022/07/20 00:11:44;;;;;;;;;;;;;;;;;;351444;28;807;-61
2022/07/20 00:11:54;;;;;;;;;;;;;;;;;;351371;28;912;-62
2022/07/20 00:12:05;;;;;;;;;;;;;;;;;;351420;28;991;-61
2022/07/20 00:12:15;;;;;;;;;;;;;;;;;;351382;28;975;-62
2022/07/20 00:12:25;;;;;;;;;;;;;;;;;;351329;28;958;-62
2022/07/20 00:12:35;;;;;;;;;;;;;;;;;;351426;28;1007;-62
2022/07/20 00:12:47;;;;;;;;;;;;;;;;;;351370;28;1011;-61
2022/07/20 00:12:57;;;;;;;;;;;;;;;;;;351391;28;895;-61
2022/07/20 00:13:07;;;;;;;;;;;;;;;;;;351416;28;975;-61
2022/07/20 00:13:18;;;;;;;;;;;;;;;;;;351435;28;1143;-61
2022/07/20 00:13:28;;;;;;;;;;;;;;;;;;351393;28;944;-62
2022/07/20 00:13:38;;;;;;;;;;;;;;;;;;351406;28;803;-62
2022/07/20 00:13:56;;;;;;;;;;;;;;;;;;350539;28;1899;-62
2022/07/20 00:14:07;;;;;;;;;;;;;;;;;;350001;28;991;-62
2022/07/20 00:14:17;;;;;;;;;;;;;;;;;;350054;28;913;-62
2022/07/20 00:14:27;;;;;;;;;;;;;;;;;;349965;28;941;-61
2022/07/20 00:14:38;;;;;;;;;;;;;;;;;;349972;28;995;-62
2022/07/20 00:14:48;;;;;;;;;;;;;;;;;;350008;28;932;-61
2022/07/20 00:14:58;;;;;;;;;;;;;;;;;;350029;28;967;-61
2022/07/20 00:15:08;;;;;;;;;;;;;;;;;;350016;28;979;-61
2022/07/20 00:15:19;;;;;;;;;;;;;;;;;;350032;28;991;-61
2022/07/20 00:15:29;;;;;;;;;;;;;;;;;;350016;28;900;-62
2022/07/20 00:15:40;;;;;;;;;;;;;;;;;;350048;28;912;-62
2022/07/20 00:15:50;;;;;;;;;;;;;;;;;;349978;28;1125;-62
2022/07/20 00:16:00;;;;;;;;;;;;;;;;;;349991;28;790;-61
2022/07/20 00:16:10;;;;;;;;;;;;;;;;;;350055;28;920;-62
2022/07/20 00:16:21;;;;;;;;;;;;;;;;;;350031;28;956;-62
2022/07/20 00:16:38;;;;;;;;;;;;;;;;;;350041;28;856;-62
2022/07/20 00:16:49;;;;;;;;;;;;;;;;;;349949;28;920;-61
2022/07/20 00:16:59;;;;;;;;;;;;;;;;;;350030;28;996;-61
2022/07/20 00:17:09;;;;;;;;;;;;;;;;;;350037;28;948;-62
2022/07/20 00:17:19;;;;;;;;;;;;;;;;;;349992;28;960;-62
2022/07/20 00:17:29;;;;;;;;;;;;;;;;;;350036;28;991;-61
2022/07/20 00:17:39;;;;;;;;;;;;;;;;;;349918;28;1083;-62
2022/07/20 00:17:50;;;;;;;;;;;;;;;;;;350010;28;904;-62
2022/07/20 00:18:00;;;;;;;;;;;;;;;;;;350002;28;968;-62
2022/07/20 00:18:11;;;;;;;;;;;;;;;;;;350018;28;924;-61
2022/07/20 00:18:21;;;;;;;;;;;;;;;;;;349863;28;1784;-62
2022/07/20 00:18:31;;;;;;;;;;;;;;;;;;350640;28;908;-62
2022/07/20 00:18:41;;;;;;;;;;;;;;;;;;351363;28;1139;-62
2022/07/20 00:18:51;;;;;;;;;;;;;;;;;;351375;28;915;-62
2022/07/20 00:19:03;;;;;;;;;;;;;;;;;;351441;28;975;-61
2022/07/20 00:19:14;;;;;;;;;;;;;;;;;;351442;28;994;-62
2022/07/20 00:19:24;;;;;;;;;;;;;;;;;;351308;28;976;-61
2022/07/20 00:19:35;;;;;;;;;;;;;;;;;;351423;28;905;-61
2022/07/20 00:19:45;;;;;;;;;;;;;;;;;;351454;27;758;-62
2022/07/20 00:19:55;;;;;;;;;;;;;;;;;;351398;28;896;-62
2022/07/20 00:20:25;;;;;;;;;;;;;;;;;;350818;28;912;-62
2022/07/20 00:20:42;;;;;;;;;;;;;;;;;;351288;28;773;-62
2022/07/20 00:20:53;;;;;;;;;;;;;;;;;;351342;27;979;-62
2022/07/20 00:21:03;;;;;;;;;;;;;;;;;;351362;28;975;-61
2022/07/20 00:21:13;;;;;;;;;;;;;;;;;;351446;28;860;-62
2022/07/20 00:21:24;;;;;;;;;;;;;;;;;;351425;28;1042;-62
2022/07/20 00:21:34;;;;;;;;;;;;;;;;;;351427;28;959;-62
2022/07/20 00:21:45;;;;;;;;;;;;;;;;;;351396;28;905;-62
2022/07/20 00:21:55;;;;;;;;;;;;;;;;;;351350;28;987;-62
2022/07/20 00:22:05;;;;;;;;;;;;;;;;;;351359;28;1004;-62
2022/07/20 00:22:15;;;;;;;;;;;;;;;;;;351392;28;782;-62
2022/07/20 00:22:26;;;;;;;;;;;;;;;;;;351424;28;936;-62
2022/07/20 00:22:36;;;;;;;;;;;;;;;;;;350389;28;1440;-62
2022/07/20 00:22:46;;;;;;;;;;;;;;;;;;351000;28;1688;-62
2022/07/20 00:22:59;;;;;;;;;;;;;;;;;;351396;28;896;-62
2022/07/20 00:23:10;;;;;;;;;;;;;;;;;;351428;28;844;-62
2022/07/20 00:23:20;;;;;;;;;;;;;;;;;;351421;28;924;-62
2022/07/20 00:23:30;;;;;;;;;;;;;;;;;;350749;28;1898;-62
2022/07/20 00:23:40;;;;;;;;;;;;;;;;;;350612;28;1569;-62
2022/07/20 00:23:51;;;;;;;;;;;;;;;;;;352787;28;1023;-61
2022/07/20 00:24:01;;;;;;;;;;;;;;;;;;352838;28;849;-62
2022/07/20 00:24:11;;;;;;;;;;;;;;;;;;352802;28;956;-62
2022/07/20 00:24:21;;;;;;;;;;;;;;;;;;352812;28;916;-62
2022/07/20 00:24:32;;;;;;;;;;;;;;;;;;352773;28;840;-62
2022/07/20 00:24:42;;;;;;;;;;;;;;;;;;351822;28;1271;-62
2022/07/20 00:24:52;;;;;;;;;;;;;;;;;;351298;28;1985;-62
2022/07/20 00:25:03;;;;;;;;;;;;;;;;;;351347;27;1078;-61
2022/07/20 00:25:19;;;;;;;;;;;;;;;;;;351393;28;901;-61
2022/07/20 00:25:30;;;;;;;;;;;;;;;;;;350666;28;1819;-62
2022/07/20 00:25:40;;;;;;;;;;;;;;;;;;349364;28;1826;-62
2022/07/20 00:25:50;;;;;;;;;;;;;;;;;;350627;28;1260;-62
2022/07/20 00:26:00;;;;;;;;;;;;;;;;;;351411;28;916;-62
2022/07/20 00:26:11;;;;;;;;;;;;;;;;;;351410;27;888;-62
2022/07/20 00:26:21;;;;;;;;;;;;;;;;;;351347;28;1000;-63
2022/07/20 00:26:31;;;;;;;;;;;;;;;;;;351414;28;979;-62
2022/07/20 00:26:41;;;;;;;;;;;;;;;;;;351442;28;928;-62
2022/07/20 00:26:52;;;;;;;;;;;;;;;;;;351346;28;1105;-62
2022/07/20 00:27:02;;;;;;;;;;;;;;;;;;351349;28;975;-62
2022/07/20 00:27:12;;;;;;;;;;;;;;;;;;351366;27;853;-62
2022/07/20 00:27:23;;;;;;;;;;;;;;;;;;351415;28;955;-62
2022/07/20 00:27:33;;;;;;;;;;;;;;;;;;351416;28;908;-62
2022/07/20 00:27:43;;;;;;;;;;;;;;;;;;351432;28;967;-62
2022/07/20 00:27:53;;;;;;;;;;;;;;;;;;351427;28;841;-62
2022/07/20 00:28:04;;;;;;;;;;;;;;;;;;351341;28;808;-62
2022/07/20 00:28:14;;;;;;;;;;;;;;;;;;351365;28;1007;-62
2022/07/20 00:28:24;;;;;;;;;;;;;;;;;;351407;28;923;-62
2022/07/20 00:28:34;;;;;;;;;;;;;;;;;;351348;28;908;-62
2022/07/20 00:28:45;;;;;;;;;;;;;;;;;;351400;28;940;-62
2022/07/20 00:28:55;;;;;;;;;;;;;;;;;;351385;28;983;-62
2022/07/20 00:29:05;;;;;;;;;;;;;;;;;;351357;28;770;-62
2022/07/20 00:29:15;;;;;;;;;;;;;;;;;;351429;28;964;-62
2022/07/20 00:29:25;;;;;;;;;;;;;;;;;;351376;28;1016;-62
2022/07/20 00:29:36;;;;;;;;;;;;;;;;;;351369;28;734;-62
2022/07/20 00:29:46;;;;;;;;;;;;;;;;;;351346;28;934;-62
2022/07/20 00:29:56;;;;;;;;;;;;;;;;;;351365;28;1026;-62
2022/07/20 00:30:07;;;;;;;;;;;;;;;;;;351366;28;928;-62
2022/07/20 00:30:17;;;;;;;;;;;;;;;;;;351380;28;1047;-62
2022/07/20 00:30:34;;;;;;;;;;;;;;;;;;351292;28;889;-62
2022/07/20 00:30:46;;;;;;;;;;;;;;;;;;351410;27;1011;-62
2022/07/20 00:30:56;;;;;;;;;;;;;;;;;;351431;28;944;-62
2022/07/20 00:31:06;;;;;;;;;;;;;;;;;;351241;28;904;-62
2022/07/20 00:31:17;;;;;;;;;;;;;;;;;;351377;28;912;-62
2022/07/20 00:31:28;;;;;;;;;;;;;;;;;;351383;28;932;-62
2022/07/20 00:31:38;;;;;;;;;;;;;;;;;;351352;28;979;-62
2022/07/20 00:31:48;;;;;;;;;;;;;;;;;;351448;28;857;-62
2022/07/20 00:31:58;;;;;;;;;;;;;;;;;;351352;28;979;-62
2022/07/20 00:32:08;;;;;;;;;;;;;;;;;;351346;28;891;-62
2022/07/20 00:32:19;;;;;;;;;;;;;;;;;;351395;28;781;-62
2022/07/20 00:32:29;;;;;;;;;;;;;;;;;;351341;27;1030;-62
2022/07/20 00:32:40;;;;;;;;;;;;;;;;;;351346;28;991;-62
2022/07/20 00:32:50;;;;;;;;;;;;;;;;;;351369;28;924;-62
2022/07/20 00:33:00;;;;;;;;;;;;;;;;;;351402;28;820;-62
2022/07/20 00:33:10;;;;;;;;;;;;;;;;;;351294;28;853;-62
2022/07/20 00:33:21;;;;;;;;;;;;;;;;;;351382;28;856;-62
2022/07/20 00:33:31;;;;;;;;;;;;;;;;;;351365;28;916;-62
2022/07/20 00:33:44;;;;;;;;;;;;;;;;;;351383;28;967;-62
2022/07/20 00:33:54;;;;;;;;;;;;;;;;;;351427;28;853;-62
2022/07/20 00:34:04;;;;;;;;;;;;;;;;;;351377;28;960;-62
2022/07/20 00:34:14;;;;;;;;;;;;;;;;;;351378;28;844;-62
2022/07/20 00:34:25;;;;;;;;;;;;;;;;;;351306;28;1237;-62
2022/07/20 00:34:35;;;;;;;;;;;;;;;;;;351419;28;896;-62
2022/07/20 00:34:45;;;;;;;;;;;;;;;;;;351358;28;910;-62
2022/07/20 00:34:55;;;;;;;;;;;;;;;;;;351434;28;853;-62
2022/07/20 00:35:06;;;;;;;;;;;;;;;;;;351435;27;967;-62
2022/07/20 00:35:17;;;;;;;;;;;;;;;;;;351111;28;1294;-62
2022/07/20 00:35:27;;;;;;;;;;;;;;;;;;351372;28;1036;-62
2022/07/20 00:35:43;;;;;;;;;;;;;;;;;;351406;28;901;-62
2022/07/20 00:35:54;;;;;;;;;;;;;;;;;;351418;28;1039;-62
2022/07/20 00:36:04;;;;;;;;;;;;;;;;;;351375;28;861;-62
2022/07/20 00:36:15;;;;;;;;;;;;;;;;;;351390;28;916;-62
2022/07/20 00:36:25;;;;;;;;;;;;;;;;;;351397;28;983;-62
2022/07/20 00:36:36;;;;;;;;;;;;;;;;;;351374;28;730;-62
2022/07/20 00:36:46;;;;;;;;;;;;;;;;;;351403;28;837;-62
2022/07/20 00:36:56;;;;;;;;;;;;;;;;;;351370;28;778;-62
2022/07/20 00:37:06;;;;;;;;;;;;;;;;;;351397;28;944;-62
2022/07/20 00:37:16;;;;;;;;;;;;;;;;;;351371;28;845;-62
2022/07/20 00:37:27;;;;;;;;;;;;;;;;;;351343;28;916;-62
2022/07/20 00:37:37;;;;;;;;;;;;;;;;;;351420;28;928;-62
2022/07/20 00:37:48;;;;;;;;;;;;;;;;;;351341;28;936;-62
2022/07/20 00:37:58;;;;;;;;;;;;;;;;;;351410;28;975;-62
2022/07/20 00:38:08;;;;;;;;;;;;;;;;;;351437;28;817;-62
2022/07/20 00:38:18;;;;;;;;;;;;;;;;;;351327;28;1039;-62
2022/07/20 00:38:28;;;;;;;;;;;;;;;;;;351425;28;920;-62
2022/07/20 00:38:39;;;;;;;;;;;;;;;;;;351347;28;1007;-62
2022/07/20 00:38:49;;;;;;;;;;;;;;;;;;351399;28;909;-62
2022/07/20 00:38:59;;;;;;;;;;;;;;;;;;351428;28;789;-62
2022/07/20 00:39:09;;;;;;;;;;;;;;;;;;351372;28;905;-62
2022/07/20 00:39:20;;;;;;;;;;;;;;;;;;351378;28;908;-62
2022/07/20 00:39:30;;;;;;;;;;;;;;;;;;351307;28;802;-62
2022/07/20 00:39:40;;;;;;;;;;;;;;;;;;351367;28;980;-62
2022/07/20 00:39:50;;;;;;;;;;;;;;;;;;351393;28;809;-62
2022/07/20 00:40:01;;;;;;;;;;;;;;;;;;351393;28;960;-62
2022/07/20 00:40:13;;;;;;;;;;;;;;;;;;351360;28;1003;-62
2022/07/20 00:40:23;;;;;;;;;;;;;;;;;;349836;28;1827;-61
2022/07/20 00:40:33;;;;;;;;;;;;;;;;;;351109;28;857;-62
2022/07/20 00:40:50;;;;;;;;;;;;;;;;;;351439;28;1196;-61
2022/07/20 00:41:01;;;;;;;;;;;;;;;;;;351302;28;1083;-62
2022/07/20 00:41:11;;;;;;;;;;;;;;;;;;351433;28;921;-62
2022/07/20 00:41:21;;;;;;;;;;;;;;;;;;351365;28;956;-61
2022/07/20 00:41:32;;;;;;;;;;;;;;;;;;351319;28;896;-62
2022/07/20 00:41:42;;;;;;;;;;;;;;;;;;351376;28;805;-62
2022/07/20 00:41:52;;;;;;;;;;;;;;;;;;351454;28;1697;-62
2022/07/20 00:42:02;;;;;;;;;;;;;;;;;;351405;28;881;-62
2022/07/20 00:42:12;;;;;;;;;;;;;;;;;;351416;27;999;-62
2022/07/20 00:42:23;;;;;;;;;;;;;;;;;;351330;28;991;-62
2022/07/20 00:42:33;;;;;;;;;;;;;;;;;;351386;28;888;-62
2022/07/20 00:42:44;;;;;;;;;;;;;;;;;;351413;28;789;-62
2022/07/20 00:42:54;;;;;;;;;;;;;;;;;;351453;28;872;-61
2022/07/20 00:43:04;;;;;;;;;;;;;;;;;;351313;28;1004;-61
2022/07/20 00:43:14;;;;;;;;;;;;;;;;;;351406;28;841;-62
2022/07/20 00:43:25;;;;;;;;;;;;;;;;;;351364;28;800;-62
2022/07/20 00:43:53;;;;;;;;;;;;;;;;;;351312;28;909;-62
2022/07/20 00:44:06;;;;;;;;;;;;;;;;;;351366;28;860;-62
2022/07/20 00:44:16;;;;;;;;;;;;;;;;;;351407;28;830;-62
2022/07/20 00:44:26;;;;;;;;;;;;;;;;;;351376;28;964;-62
2022/07/20 00:44:36;;;;;;;;;;;;;;;;;;350317;28;1800;-62
2022/07/20 00:44:47;;;;;;;;;;;;;;;;;;350008;28;790;-62
2022/07/20 00:44:57;;;;;;;;;;;;;;;;;;349922;28;1973;-62
2022/07/20 00:45:08;;;;;;;;;;;;;;;;;;349965;28;1000;-62
2022/07/20 00:45:18;;;;;;;;;;;;;;;;;;349961;28;928;-62
2022/07/20 00:45:28;;;;;;;;;;;;;;;;;;349897;28;1200;-62
2022/07/20 00:45:39;;;;;;;;;;;;;;;;;;349895;28;1083;-62
2022/07/20 00:45:49;;;;;;;;;;;;;;;;;;349981;28;932;-62
2022/07/20 00:46:05;;;;;;;;;;;;;;;;;;349998;28;960;-62
2022/07/20 00:46:15;;;;;;;;;;;;;;;;;;349976;28;948;-62
2022/07/20 00:46:26;;;;;;;;;;;;;;;;;;349925;28;996;-62
2022/07/20 00:46:41;;;;;;;;;;;;;;;;;;350019;28;944;-62
2022/07/20 00:46:53;;;;;;;;;;;;;;;;;;349971;28;929;-62
2022/07/20 00:47:03;;;;;;;;;;;;;;;;;;349953;28;1141;-62
2022/07/20 00:47:13;;;;;;;;;;;;;;;;;;350032;28;968;-62
2022/07/20 00:47:23;;;;;;;;;;;;;;;;;;350030;28;790;-62
2022/07/20 00:47:34;;;;;;;;;;;;;;;;;;349897;28;904;-62
2022/07/20 00:47:44;;;;;;;;;;;;;;;;;;349941;28;936;-62
2022/07/20 00:47:54;;;;;;;;;;;;;;;;;;350050;28;1042;-61
2022/07/20 00:48:05;;;;;;;;;;;;;;;;;;350010;28;861;-62
2022/07/20 00:48:15;;;;;;;;;;;;;;;;;;349929;28;917;-62
2022/07/20 00:48:25;;;;;;;;;;;;;;;;;;349994;28;1115;-62
2022/07/20 00:48:35;;;;;;;;;;;;;;;;;;349963;28;1202;-62
2022/07/20 00:48:45;;;;;;;;;;;;;;;;;;350004;28;928;-62
2022/07/20 00:48:56;;;;;;;;;;;;;;;;;;349924;28;921;-62
2022/07/20 00:49:07;;;;;;;;;;;;;;;;;;349976;28;921;-62
2022/07/20 00:49:17;;;;;;;;;;;;;;;;;;350034;28;1635;-62
2022/07/20 00:49:28;;;;;;;;;;;;;;;;;;350018;28;775;-62
2022/07/20 00:49:38;;;;;;;;;;;;;;;;;;349934;28;918;-62
2022/07/20 00:49:48;;;;;;;;;;;;;;;;;;349985;28;932;-62
2022/07/20 00:49:58;;;;;;;;;;;;;;;;;;349938;28;1011;-62
2022/07/20 00:50:09;;;;;;;;;;;;;;;;;;349977;28;936;-62
2022/07/20 00:50:19;;;;;;;;;;;;;;;;;;349985;28;1011;-62
2022/07/20 00:50:29;;;;;;;;;;;;;;;;;;349951;28;960;-62
2022/07/20 00:50:40;;;;;;;;;;;;;;;;;;349927;28;964;-62
2022/07/20 00:50:50;;;;;;;;;;;;;;;;;;350005;28;845;-62
2022/07/20 00:51:00;;;;;;;;;;;;;;;;;;349889;28;1058;-61
2022/07/20 00:51:16;;;;;;;;;;;;;;;;;;350047;28;917;-61
2022/07/20 00:51:27;;;;;;;;;;;;;;;;;;349958;28;1126;-61
2022/07/20 00:51:42;;;;;;;;;;;;;;;;;;349771;28;1808;-62
2022/07/20 00:51:52;;;;;;;;;;;;;;;;;;349950;28;908;-61
2022/07/20 00:52:02;;;;;;;;;;;;;;;;;;349976;28;706;-62
2022/07/20 00:52:13;;;;;;;;;;;;;;;;;;349919;28;972;-62
2022/07/20 00:52:23;;;;;;;;;;;;;;;;;;349988;28;869;-62
2022/07/20 00:52:33;;;;;;;;;;;;;;;;;;349970;28;968;-61
2022/07/20 00:52:44;;;;;;;;;;;;;;;;;;349651;28;1401;-62
2022/07/20 00:52:54;;;;;;;;;;;;;;;;;;350689;28;1768;-62
2022/07/20 00:53:04;;;;;;;;;;;;;;;;;;351397;28;964;-61
2022/07/20 00:53:15;;;;;;;;;;;;;;;;;;351391;28;913;-62
2022/07/20 00:53:25;;;;;;;;;;;;;;;;;;351382;28;829;-62
2022/07/20 00:53:35;;;;;;;;;;;;;;;;;;351086;28;1842;-62
2022/07/20 00:53:46;;;;;;;;;;;;;;;;;;351462;28;1499;-61
2022/07/20 00:53:57;;;;;;;;;;;;;;;;;;352758;28;979;-61
2022/07/20 00:54:07;;;;;;;;;;;;;;;;;;352749;28;932;-62
2022/07/20 00:54:18;;;;;;;;;;;;;;;;;;352648;28;960;-62
2022/07/20 00:54:28;;;;;;;;;;;;;;;;;;352731;28;1019;-62
2022/07/20 00:54:39;;;;;;;;;;;;;;;;;;351631;28;1255;-61
2022/07/20 00:54:49;;;;;;;;;;;;;;;;;;351431;28;939;-62
2022/07/20 00:54:59;;;;;;;;;;;;;;;;;;351376;28;924;-61
2022/07/20 00:55:10;;;;;;;;;;;;;;;;;;351397;28;808;-61
2022/07/20 00:55:20;;;;;;;;;;;;;;;;;;351347;28;916;-61
2022/07/20 00:55:31;;;;;;;;;;;;;;;;;;351392;28;888;-62
2022/07/20 00:55:41;;;;;;;;;;;;;;;;;;351339;28;886;-62
2022/07/20 00:55:52;;;;;;;;;;;;;;;;;;351306;28;996;-62
2022/07/20 00:56:02;;;;;;;;;;;;;;;;;;351399;28;778;-61
2022/07/20 00:56:14;;;;;;;;;;;;;;;;;;351363;28;864;-61
2022/07/20 00:56:32;;;;;;;;;;;;;;;;;;351334;28;925;-62
2022/07/20 00:56:42;;;;;;;;;;;;;;;;;;351309;28;955;-61
2022/07/20 00:56:52;;;;;;;;;;;;;;;;;;351452;28;968;-61
2022/07/20 00:57:03;;;;;;;;;;;;;;;;;;351366;28;972;-62
2022/07/20 00:57:13;;;;;;;;;;;;;;;;;;351404;28;826;-62
2022/07/20 00:57:24;;;;;;;;;;;;;;;;;;351382;28;931;-61
2022/07/20 00:57:34;;;;;;;;;;;;;;;;;;351296;28;991;-62
2022/07/20 00:57:44;;;;;;;;;;;;;;;;;;351385;28;782;-62
2022/07/20 00:57:54;;;;;;;;;;;;;;;;;;351381;27;924;-61
2022/07/20 00:58:05;;;;;;;;;;;;;;;;;;351380;28;900;-62
2022/07/20 00:58:15;;;;;;;;;;;;;;;;;;351333;28;928;-62
2022/07/20 00:58:25;;;;;;;;;;;;;;;;;;351210;28;1209;-62
2022/07/20 00:58:35;;;;;;;;;;;;;;;;;;351408;28;842;-62
2022/07/20 00:58:46;;;;;;;;;;;;;;;;;;351371;28;872;-62
2022/07/20 00:58:56;;;;;;;;;;;;;;;;;;351356;28;1016;-62
2022/07/20 00:59:07;;;;;;;;;;;;;;;;;;351371;28;798;-61
2022/07/20 00:59:18;;;;;;;;;;;;;;;;;;351374;28;929;-62
2022/07/20 00:59:28;;;;;;;;;;;;;;;;;;351413;28;916;-61
2022/07/20 00:59:38;;;;;;;;;;;;;;;;;;351400;28;845;-62
2022/07/20 00:59:48;;;;;;;;;;;;;;;;;;351359;28;924;-62
2022/07/20 00:59:59;;;;;;;;;;;;;;;;;;351375;28;857;-61
2022/07/20 01:00:10;;;;;;;;;;;;;;;;;;351328;28;892;-62
2022/07/20 01:00:20;;;;;;;;;;;;;;;;;;351350;28;809;-61
2022/07/20 01:00:30;;;;;;;;;;;;;;;;;;351335;28;1008;-62
2022/07/20 01:00:41;;;;;;;;;;;;;;;;;;351363;28;826;-62
2022/07/20 01:00:51;;;;;;;;;;;;;;;;;;351370;28;916;-62
2022/07/20 01:01:01;;;;;;;;;;;;;;;;;;351306;28;920;-62
2022/07/20 01:01:12;;;;;;;;;;;;;;;;;;351399;28;837;-62
2022/07/20 01:01:22;;;;;;;;;;;;;;;;;;351403;28;936;-62
2022/07/20 01:01:39;;;;;;;;;;;;;;;;;;351404;28;980;-61
2022/07/20 01:01:49;;;;;;;;;;;;;;;;;;351318;28;943;-62
2022/07/20 01:01:59;;;;;;;;;;;;;;;;;;351379;28;892;-62
2022/07/20 01:02:10;;;;;;;;;;;;;;;;;;351352;28;1004;-62
2022/07/20 01:02:20;;;;;;;;;;;;;;;;;;351304;28;1028;-62
2022/07/20 01:02:30;;;;;;;;;;;;;;;;;;351350;28;860;-62
2022/07/20 01:02:42;;;;;;;;;;;;;;;;;;351301;28;1015;-62
2022/07/20 01:02:52;;;;;;;;;;;;;;;;;;351387;27;933;-62
2022/07/20 01:03:02;;;;;;;;;;;;;;;;;;351363;28;916;-62
2022/07/20 01:03:12;;;;;;;;;;;;;;;;;;351441;28;849;-62
2022/07/20 01:03:23;;;;;;;;;;;;;;;;;;351371;28;940;-62
2022/07/20 01:03:33;;;;;;;;;;;;;;;;;;351335;28;896;-62
2022/07/20 01:03:44;;;;;;;;;;;;;;;;;;351351;28;979;-62
2022/07/20 01:03:54;;;;;;;;;;;;;;;;;;351333;28;836;-62
2022/07/20 01:04:04;;;;;;;;;;;;;;;;;;351370;28;853;-62
2022/07/20 01:04:15;;;;;;;;;;;;;;;;;;351343;28;1020;-62
2022/07/20 01:04:25;;;;;;;;;;;;;;;;;;351333;28;793;-62
2022/07/20 01:04:35;;;;;;;;;;;;;;;;;;351296;28;1202;-62
2022/07/20 01:04:45;;;;;;;;;;;;;;;;;;351361;28;1190;-62
2022/07/20 01:04:55;;;;;;;;;;;;;;;;;;351336;28;1983;-62
2022/07/20 01:05:16;;;;;;;;;;;;;;;;;;351355;28;905;-62
2022/07/20 01:05:26;;;;;;;;;;;;;;;;;;351394;28;948;-62
2022/07/20 01:05:36;;;;;;;;;;;;;;;;;;351340;28;916;-62
2022/07/20 01:05:46;;;;;;;;;;;;;;;;;;351368;28;972;-62
2022/07/20 01:05:56;;;;;;;;;;;;;;;;;;351377;28;904;-62
2022/07/20 01:06:07;;;;;;;;;;;;;;;;;;351329;28;917;-62
2022/07/20 01:06:18;;;;;;;;;;;;;;;;;;351381;28;778;-62
2022/07/20 01:06:29;;;;;;;;;;;;;;;;;;350821;28;1828;-62
2022/07/20 01:06:45;;;;;;;;;;;;;;;;;;351372;27;900;-62
2022/07/20 01:06:56;;;;;;;;;;;;;;;;;;351298;28;948;-62
2022/07/20 01:07:06;;;;;;;;;;;;;;;;;;351392;28;840;-62
2022/07/20 01:07:17;;;;;;;;;;;;;;;;;;351387;28;916;-62
2022/07/20 01:07:28;;;;;;;;;;;;;;;;;;351349;28;1124;-62
2022/07/20 01:07:38;;;;;;;;;;;;;;;;;;351353;28;948;-62
2022/07/20 01:07:48;;;;;;;;;;;;;;;;;;351333;28;800;-63
2022/07/20 01:07:59;;;;;;;;;;;;;;;;;;351395;28;920;-62
2022/07/20 01:08:09;;;;;;;;;;;;;;;;;;351398;28;1013;-62
2022/07/20 01:08:19;;;;;;;;;;;;;;;;;;351348;28;996;-62
2022/07/20 01:08:30;;;;;;;;;;;;;;;;;;351411;28;778;-62
2022/07/20 01:08:41;;;;;;;;;;;;;;;;;;351302;28;851;-62
2022/07/20 01:08:51;;;;;;;;;;;;;;;;;;351386;28;849;-62
2022/07/20 01:09:02;;;;;;;;;;;;;;;;;;351308;28;972;-62
2022/07/20 01:09:12;;;;;;;;;;;;;;;;;;351391;28;928;-62
2022/07/20 01:09:22;;;;;;;;;;;;;;;;;;351343;28;1020;-62
2022/07/20 01:09:32;;;;;;;;;;;;;;;;;;351353;28;930;-62
2022/07/20 01:09:44;;;;;;;;;;;;;;;;;;351361;28;956;-62
2022/07/20 01:09:54;;;;;;;;;;;;;;;;;;351331;28;813;-62
2022/07/20 01:10:04;;;;;;;;;;;;;;;;;;351344;28;916;-62
2022/07/20 01:10:16;;;;;;;;;;;;;;;;;;351406;28;1001;-62
2022/07/20 01:10:26;;;;;;;;;;;;;;;;;;351291;28;944;-62
2022/07/20 01:10:37;;;;;;;;;;;;;;;;;;351332;28;770;-62
2022/07/20 01:10:48;;;;;;;;;;;;;;;;;;351313;28;932;-62
2022/07/20 01:10:59;;;;;;;;;;;;;;;;;;351344;28;810;-62
2022/07/20 01:11:09;;;;;;;;;;;;;;;;;;351340;28;988;-62
2022/07/20 01:11:20;;;;;;;;;;;;;;;;;;351380;28;916;-62
2022/07/20 01:11:30;;;;;;;;;;;;;;;;;;351342;28;1035;-62
2022/07/20 01:11:40;;;;;;;;;;;;;;;;;;351366;28;916;-62
2022/07/20 01:11:56;;;;;;;;;;;;;;;;;;351229;28;900;-62
2022/07/20 01:12:08;;;;;;;;;;;;;;;;;;351343;28;979;-62
2022/07/20 01:12:18;;;;;;;;;;;;;;;;;;351336;28;1084;-62
2022/07/20 01:12:28;;;;;;;;;;;;;;;;;;351385;28;848;-62
2022/07/20 01:12:42;;;;;;;;;;;;;;;;;;351328;28;956;-62
2022/07/20 01:12:53;;;;;;;;;;;;;;;;;;351314;28;964;-62
2022/07/20 01:13:03;;;;;;;;;;;;;;;;;;351353;27;802;-62
2022/07/20 01:13:13;;;;;;;;;;;;;;;;;;351329;28;982;-62
2022/07/20 01:13:24;;;;;;;;;;;;;;;;;;351359;28;805;-62
2022/07/20 01:13:34;;;;;;;;;;;;;;;;;;351413;27;794;-62
2022/07/20 01:13:45;;;;;;;;;;;;;;;;;;351308;28;936;-62
2022/07/20 01:14:02;;;;;;;;;;;;;;;;;;351366;28;1082;-62
2022/07/20 01:14:12;;;;;;;;;;;;;;;;;;351360;28;841;-62
2022/07/20 01:14:23;;;;;;;;;;;;;;;;;;351378;28;924;-62
2022/07/20 01:14:33;;;;;;;;;;;;;;;;;;351357;28;970;-62
2022/07/20 01:14:43;;;;;;;;;;;;;;;;;;351298;28;1232;-62
2022/07/20 01:14:54;;;;;;;;;;;;;;;;;;351307;28;1024;-61
2022/07/20 01:15:05;;;;;;;;;;;;;;;;;;351322;28;979;-62
2022/07/20 01:15:16;;;;;;;;;;;;;;;;;;351364;27;988;-62
2022/07/20 01:15:27;;;;;;;;;;;;;;;;;;351314;28;928;-62
2022/07/20 01:15:37;;;;;;;;;;;;;;;;;;351307;28;1067;-62
2022/07/20 01:15:47;;;;;;;;;;;;;;;;;;351335;28;924;-62
2022/07/20 01:15:57;;;;;;;;;;;;;;;;;;351314;28;949;-62
2022/07/20 01:16:08;;;;;;;;;;;;;;;;;;351308;28;979;-62
2022/07/20 01:16:18;;;;;;;;;;;;;;;;;;349906;28;1306;-61
2022/07/20 01:16:28;;;;;;;;;;;;;;;;;;350917;28;1716;-62
2022/07/20 01:16:38;;;;;;;;;;;;;;;;;;351320;28;1749;-62
2022/07/20 01:16:49;;;;;;;;;;;;;;;;;;350669;28;1510;-62
2022/07/20 01:17:05;;;;;;;;;;;;;;;;;;350424;28;812;-62
2022/07/20 01:17:16;;;;;;;;;;;;;;;;;;350405;28;978;-62
2022/07/20 01:17:26;;;;;;;;;;;;;;;;;;350399;28;998;-62
2022/07/20 01:17:36;;;;;;;;;;;;;;;;;;350439;28;836;-62
2022/07/20 01:17:46;;;;;;;;;;;;;;;;;;350423;28;900;-62
2022/07/20 01:17:56;;;;;;;;;;;;;;;;;;350376;28;1126;-62
2022/07/20 01:18:06;;;;;;;;;;;;;;;;;;350413;28;781;-62
2022/07/20 01:18:17;;;;;;;;;;;;;;;;;;350443;28;904;-62
2022/07/20 01:18:27;;;;;;;;;;;;;;;;;;350434;28;982;-62
2022/07/20 01:18:37;;;;;;;;;;;;;;;;;;350374;28;980;-62
2022/07/20 01:18:47;;;;;;;;;;;;;;;;;;350426;28;944;-61
2022/07/20 01:18:58;;;;;;;;;;;;;;;;;;350435;28;769;-62
2022/07/20 01:19:08;;;;;;;;;;;;;;;;;;350407;28;915;-62
2022/07/20 01:19:18;;;;;;;;;;;;;;;;;;350387;28;939;-62
2022/07/20 01:19:29;;;;;;;;;;;;;;;;;;350418;28;928;-62
2022/07/20 01:19:39;;;;;;;;;;;;;;;;;;350446;28;936;-62
2022/07/20 01:19:49;;;;;;;;;;;;;;;;;;350420;28;849;-62
2022/07/20 01:19:59;;;;;;;;;;;;;;;;;;350390;28;912;-62
2022/07/20 01:20:17;;;;;;;;;;;;;;;;;;350380;28;924;-62
2022/07/20 01:20:41;;;;;;;;;;;;;;;;;;349469;28;1364;-62